SUA - Witham Fld

Pirep is a free, collaborative database of all public and private airports located within the United States. All pilots are welcome to contribute, edit, and improve any airport they have local knowledge about, no registration required.
Are you familiar with this airport? Help out other pilots by adding your local knowledge.
Uploaded photos will be licensed under a CC BY-SA 4.0 license. Please only upload photos you have the rights to use.
Tags
Public
Undocu­mented
METAR / TAF
Edit Tags
Food
Camping
Lodging
Car Rental
Bicycles
Swimming
Golfing
Fishing
Hot Springs
Museum
Flying Clubs
Airpark
Upcoming Events
No upcoming events. Is anything happening here soon?
*
*
*

Where exactly on/near the airport is this event taking place?

Is there a webpage with more information for this event?

Who should be contacted for more information?

What is this event all about?

Repeat every
Description
Transient Parking
Fuel Location
Landing & Tie-down Fees
Crew Car Availability
Flying Clubs
WiFi Access
Airport Statistics
Location: Stuart, FL
Elevation: 16ft
Sectional: Miami
Activation date: Jul 1943
Fuel: 100LL, A (prices)
Runway 12/30: 5,828ft
Runway 16/34: 5,000ft
Runway 07/25: 4,653ft
Access: Open to the public
Current Weather — VFR
  • Weather data is strictly informational and not for flight planning purposes.
  • METAR
    2024-05-24 20:50:00 EDT
    Ceiling Wind Temperature Dewpoint Weather Visbility
    Sky clear 100° @ 5kt 80°F 68°F N/A 10SM
    Raw: KSUA 250050Z 10005KT 10SM CLR 27/20 A2993
  • TAF
    2024-05-24 20:00:00 EDT – 2024-05-24 22:00:00 EDT
    Ceiling Wind Weather Visbility
    Sky clear 100° @ 8kt N/A 6SM
    Clouds: Scattered @ 25,000ft
    Raw: KSUA 242338Z 2500/2524 10008KT P6SM SCT250 FM250200 VRB03KT P6SM FEW070 FM251300 18005KT P6SM FEW050 FM251600 09010KT P6SM VCSH SCT070 SCT250 FM252100 11012G18KT P6SM VCTS SCT070CB SCT100 SCT250 AMD NOT SKED
  • TAF
    2024-05-24 22:00:00 EDT – 2024-05-25 09:00:00 EDT
    Ceiling Wind Weather Visbility
    Sky clear Variable N/A 6SM
    Clouds: Few @ 7,000ft
    Raw: KSUA 242338Z 2500/2524 10008KT P6SM SCT250 FM250200 VRB03KT P6SM FEW070 FM251300 18005KT P6SM FEW050 FM251600 09010KT P6SM VCSH SCT070 SCT250 FM252100 11012G18KT P6SM VCTS SCT070CB SCT100 SCT250 AMD NOT SKED
  • TAF
    2024-05-25 09:00:00 EDT – 2024-05-25 12:00:00 EDT
    Ceiling Wind Weather Visbility
    Sky clear 180° @ 5kt N/A 6SM
    Clouds: Few @ 5,000ft
    Raw: KSUA 242338Z 2500/2524 10008KT P6SM SCT250 FM250200 VRB03KT P6SM FEW070 FM251300 18005KT P6SM FEW050 FM251600 09010KT P6SM VCSH SCT070 SCT250 FM252100 11012G18KT P6SM VCTS SCT070CB SCT100 SCT250 AMD NOT SKED
  • TAF
    2024-05-25 12:00:00 EDT – 2024-05-25 17:00:00 EDT
    Ceiling Wind Weather Visbility
    Sky clear 90° @ 10kt Showers in vicinity 6SM
    Clouds: Scattered @ 7,000ft, Scattered @ 25,000ft
    Raw: KSUA 242338Z 2500/2524 10008KT P6SM SCT250 FM250200 VRB03KT P6SM FEW070 FM251300 18005KT P6SM FEW050 FM251600 09010KT P6SM VCSH SCT070 SCT250 FM252100 11012G18KT P6SM VCTS SCT070CB SCT100 SCT250 AMD NOT SKED
  • TAF
    2024-05-25 17:00:00 EDT – 2024-05-25 20:00:00 EDT
    Ceiling Wind Weather Visbility
    Sky clear 110° @ 12kt, gusts 18kt Thunderstorm in vicinity 6SM
    Clouds: Scattered @ 7,000ft, Scattered @ 10,000ft, Scattered @ 25,000ft
    Raw: KSUA 242338Z 2500/2524 10008KT P6SM SCT250 FM250200 VRB03KT P6SM FEW070 FM251300 18005KT P6SM FEW050 FM251600 09010KT P6SM VCSH SCT070 SCT250 FM252100 11012G18KT P6SM VCTS SCT070CB SCT100 SCT250 AMD NOT SKED
Click/tap to add an annotation marker to the map
Airport Webcams
No webcams added yet.
Direct links to live image URLs will be displayed inline on this page. URLs to separate webpages will be linked to.
URL:
Direct links to live image URLs will be displayed inline on this page. URLs to separate webpages will be linked to.
URL:
Remarks
  • Existed prior to 1959.
  • Noise sensitive areas all quadrants. noise abatement procedures in effect call amgr 772-221-2374.
  • Touch & go opns permitted mon-sat (excp new years, christmas & thanksgiving) 0900 until 2 hrs past ss and are limited to 3 opns per pilot per day.
  • Stop & go opns and intxn tkofs strongly discouraged at all times.
  • Stage 1 & 2 jet opns strongly discouraged 2300-0800.
Comments
Leave a comment What was your experience like at this airport?